Briefing drone pour Coulounieix-chamiers

Rechercher une autre localisation

Conditions de vol :


Nous sommes le : Jeudi 24 juin 2021
Il est 05:56 UTC (07:56 LT)

Lever de soleil : 03:44 UTC (05:44 LT)
Coucher de soleil : 20:14 UTC (22:14 LT)

Météo

L'essentiel des conditions de vol

VIGILANCE MÉTÉO FRANCE - Dordogne (24)
Pas de vigilances particulieres
CARTE TEMSI
CARTES DES FRONTS
METAR de LFBX
LFBX 240530Z AUTO VRB03KT 9999 OVC009 15/14 Q1020

Date d'émission: 24/06/2021
Heure d'émission: 05:30 UTC
Vent: Variable 3 KT (6 km/h)
Visibilité horizontale: > 10 km
Plafond :
- Couvert à 900ft (274m)
Température: 15 °C
Point de rosée: 14 °C
Humidité: 94%
Pression (QNH): 1020 hPa
Prévision 24h pour Perigueux (1 km)
Vent : 327° pour 1 KT (4 km/h)
Temperature Maxi: 12 °C
Temperature Min: 12 °C
Humidité : 95%
Condition : Ciel dégagé



Warning: count(): Parameter must be an array or an object that implements Countable in /homepages/6/d509196549/htdocs/droneoxygene/briefing.php on line 743
WEBCAM POUR COULOUNIEIX-CHAMIERS

Réglementation

Voler en sécurité

CARTES AERONAUTIQUE 1/500.000
CARTES VAC (LFBX)
SUP AIP




Chargement des AIP...
NOTAM (COULOUNIEIX-CHAMIERS + Terrain à proximité / FIR )




Chargement des NOTAMS...
CONTACT PREFECTURE 24


Avertissement : Les données mises à disposition sont indicatives. Oxygène Drone ne pourra être tenu responsable de dégâts causés aux biens et aux personnes.